Time;durP1;ratioP1;P1;durP2;ratioP2;P2;SDS_P1;SDS_P2;PMS_P1;PMS_P2;Temp;Humidity;BMP_temperature;BMP_pressure;BME280_temperature;BME280_humidity;BME280_pressure;Samples;Min_cycle;Max_cycle;Signal;HPM_P1;HPM_P2
2022/02/18 00:02:37;;;;;;;49.80;32.55;;;;;;;;;;6312020;28;20119;-65
2022/02/18 00:05:38;;;;;;;55.50;32.13;;;;;;;;;;6307054;28;20139;-65
2022/02/18 00:08:40;;;;;;;43.80;29.40;;;;;;;;;;6309840;28;20082;-65
2022/02/18 00:11:41;;;;;;;45.03;29.10;;;;;;;;;;6308225;28;20098;-65
2022/02/18 00:14:44;;;;;;;47.03;30.48;;;;;;;;;;6308611;28;20435;-65
2022/02/18 00:17:46;;;;;;;52.70;30.75;;;;;;;;;;6303618;28;20068;-65
2022/02/18 00:20:48;;;;;;;49.13;30.33;;;;;;;;;;6306467;28;20075;-65
2022/02/18 00:23:49;;;;;;;46.70;29.10;;;;;;;;;;6308742;28;20076;-65
2022/02/18 00:26:51;;;;;;;48.17;31.00;;;;;;;;;;6310010;28;20095;-65
2022/02/18 00:29:54;;;;;;;50.70;31.35;;;;;;;;;;6307971;28;20475;-65
2022/02/18 00:32:55;;;;;;;46.92;29.92;;;;;;;;;;6309287;28;20056;-65
2022/02/18 00:35:57;;;;;;;52.28;31.42;;;;;;;;;;6306446;28;20123;-65
2022/02/18 00:38:59;;;;;;;49.88;30.58;;;;;;;;;;6306482;28;20439;-65
2022/02/18 00:42:00;;;;;;;49.97;31.67;;;;;;;;;;6303990;28;20500;-65
2022/02/18 00:45:04;;;;;;;53.90;32.75;;;;;;;;;;6309732;28;20086;-65
2022/02/18 00:48:05;;;;;;;52.80;32.87;;;;;;;;;;6305955;28;20145;-65
2022/02/18 00:51:07;;;;;;;54.88;33.47;;;;;;;;;;6305078;28;20055;-65
2022/02/18 00:54:09;;;;;;;50.40;33.20;;;;;;;;;;6305582;28;20055;-65
2022/02/18 00:57:11;;;;;;;52.75;33.80;;;;;;;;;;6303810;28;20040;-65
2022/02/18 01:00:16;;;;;;;51.58;32.25;;;;;;;;;;6304062;28;20044;-65
2022/02/18 01:03:17;;;;;;;49.33;31.50;;;;;;;;;;6307414;28;20078;-65
2022/02/18 01:06:19;;;;;;;53.97;33.17;;;;;;;;;;6307427;28;20143;-65
2022/02/18 01:09:21;;;;;;;52.58;32.53;;;;;;;;;;6304997;28;20060;-66
2022/02/18 01:12:23;;;;;;;48.97;30.67;;;;;;;;;;6303389;28;20142;-65
2022/02/18 01:15:26;;;;;;;50.05;32.33;;;;;;;;;;6307453;28;20445;-65
2022/02/18 01:18:27;;;;;;;49.65;32.15;;;;;;;;;;6305864;28;20123;-65
2022/02/18 01:21:29;;;;;;;52.25;32.03;;;;;;;;;;6305962;28;20055;-66
2022/02/18 01:24:30;;;;;;;50.15;31.85;;;;;;;;;;6306285;28;20045;-65
2022/02/18 01:27:32;;;;;;;54.92;32.88;;;;;;;;;;6304958;28;20083;-64
2022/02/18 01:30:37;;;;;;;54.63;31.95;;;;;;;;;;6307135;28;20507;-65
2022/02/18 01:33:38;;;;;;;49.53;31.60;;;;;;;;;;6304521;28;20459;-65
2022/02/18 01:36:40;;;;;;;54.63;32.45;;;;;;;;;;6306186;28;20045;-65
2022/02/18 01:39:41;;;;;;;49.88;31.25;;;;;;;;;;6304888;28;20075;-65
2022/02/18 01:42:43;;;;;;;52.40;31.95;;;;;;;;;;6305179;28;20052;-65
2022/02/18 01:45:46;;;;;;;51.15;32.75;;;;;;;;;;6306487;28;20491;-65
2022/02/18 01:48:48;;;;;;;52.03;32.42;;;;;;;;;;6310702;28;20819;-65
2022/02/18 01:51:50;;;;;;;51.13;31.10;;;;;;;;;;6304412;28;20504;-65
2022/02/18 01:54:51;;;;;;;51.50;31.58;;;;;;;;;;6307691;28;20097;-65
2022/02/18 01:57:54;;;;;;;50.35;32.33;;;;;;;;;;6306866;28;20135;-65
2022/02/18 02:00:58;;;;;;;52.55;32.25;;;;;;;;;;6307972;28;20040;-65
2022/02/18 02:03:59;;;;;;;51.67;31.85;;;;;;;;;;6306669;28;20056;-65
2022/02/18 02:07:04;;;;;;;51.38;32.05;;;;;;;;;;6299961;28;20072;-65
2022/02/18 02:10:07;;;;;;;55.78;32.60;;;;;;;;;;6303780;28;20079;-65
2022/02/18 02:13:08;;;;;;;49.22;32.45;;;;;;;;;;6302048;28;20078;-65
2022/02/18 02:16:14;;;;;;;51.45;33.40;;;;;;;;;;6300590;28;20150;-65
2022/02/18 02:19:15;;;;;;;53.05;33.38;;;;;;;;;;6302896;28;20097;-65
2022/02/18 02:22:22;;;;;;;48.50;33.33;;;;;;;;;;6302387;28;20122;-65
2022/02/18 02:25:34;;;;;;;56.03;34.10;;;;;;;;;;6303586;28;20538;-65
2022/02/18 02:28:36;;;;;;;56.92;32.92;;;;;;;;;;6311891;28;20129;-65
2022/02/18 02:31:37;;;;;;;59.20;35.30;;;;;;;;;;6309506;28;20079;-65
2022/02/18 02:34:39;;;;;;;54.63;32.88;;;;;;;;;;6306274;28;20166;-62
2022/02/18 02:37:42;;;;;;;53.63;33.40;;;;;;;;;;6308266;28;20059;-64
2022/02/18 02:40:43;;;;;;;56.35;34.05;;;;;;;;;;6304359;28;20068;-64
2022/02/18 02:43:45;;;;;;;56.78;35.15;;;;;;;;;;6305933;28;20082;-64
2022/02/18 02:46:46;;;;;;;55.90;35.22;;;;;;;;;;6305584;28;20521;-64
2022/02/18 02:49:48;;;;;;;59.40;35.70;;;;;;;;;;6304607;28;20612;-65
2022/02/18 02:52:51;;;;;;;58.50;35.80;;;;;;;;;;6299645;28;20623;-65
2022/02/18 02:55:52;;;;;;;56.30;34.78;;;;;;;;;;6301932;28;20071;-64
2022/02/18 02:58:54;;;;;;;57.22;35.38;;;;;;;;;;6304582;28;20076;-64
2022/02/18 03:01:56;;;;;;;60.30;35.78;;;;;;;;;;6301513;28;20048;-64
2022/02/18 03:04:57;;;;;;;57.65;35.60;;;;;;;;;;6315096;28;20135;-64
2022/02/18 03:08:03;;;;;;;60.75;36.33;;;;;;;;;;6314208;28;20516;-64
2022/02/18 03:11:16;;;;;;;65.53;36.38;;;;;;;;;;6312082;28;20050;-64
2022/02/18 03:14:18;;;;;;;58.90;35.97;;;;;;;;;;6315305;28;20068;-64
2022/02/18 03:17:19;;;;;;;63.60;35.75;;;;;;;;;;6316637;28;20189;-64
2022/02/18 03:20:21;;;;;;;62.33;35.30;;;;;;;;;;6314968;28;20181;-64
2022/02/18 03:23:24;;;;;;;60.25;36.03;;;;;;;;;;6312911;28;20139;-64
2022/02/18 03:26:25;;;;;;;69.68;39.67;;;;;;;;;;6310224;28;20494;-64
2022/02/18 03:29:27;;;;;;;58.95;36.00;;;;;;;;;;6308390;28;20065;-64
2022/02/18 03:32:29;;;;;;;65.18;38.38;;;;;;;;;;6307150;28;20185;-64
2022/02/18 03:35:30;;;;;;;63.42;37.97;;;;;;;;;;6305980;28;20082;-64
2022/02/18 03:38:33;;;;;;;62.15;35.70;;;;;;;;;;6307615;28;20581;-64
2022/02/18 03:41:35;;;;;;;61.83;37.40;;;;;;;;;;6302481;28;20615;-64
2022/02/18 03:44:36;;;;;;;67.85;37.95;;;;;;;;;;6311244;28;20189;-64
2022/02/18 03:47:38;;;;;;;66.95;39.25;;;;;;;;;;6313292;28;20090;-65
2022/02/18 03:50:41;;;;;;;69.28;38.83;;;;;;;;;;6311284;28;20180;-64
2022/02/18 03:53:45;;;;;;;66.43;40.35;;;;;;;;;;6310820;28;23224;-64
2022/02/18 03:56:46;;;;;;;;;;;;;;;;;;6310422;28;20055;-64
2022/02/18 03:59:48;;;;;;;71.35;38.78;;;;;;;;;;6306740;28;19997;-64
2022/02/18 04:02:49;;;;;;;70.63;39.30;;;;;;;;;;6306644;28;20076;-63
2022/02/18 04:05:51;;;;;;;66.10;39.10;;;;;;;;;;6305438;28;20117;-63
2022/02/18 04:08:54;;;;;;;71.50;40.33;;;;;;;;;;6305997;28;20515;-66
2022/02/18 04:11:55;;;;;;;68.57;39.65;;;;;;;;;;6304664;28;20178;-63
2022/02/18 04:14:57;;;;;;;70.05;39.15;;;;;;;;;;6310964;28;20408;-63
2022/02/18 04:17:59;;;;;;;71.72;41.47;;;;;;;;;;6308467;28;20502;-65
2022/02/18 04:21:00;;;;;;;72.05;41.95;;;;;;;;;;6310319;28;20190;-65
2022/02/18 04:24:03;;;;;;;67.55;39.70;;;;;;;;;;6312499;28;20048;-65
2022/02/18 04:27:05;;;;;;;73.07;42.17;;;;;;;;;;6314698;28;20435;-65
2022/02/18 04:30:07;;;;;;;67.28;39.78;;;;;;;;;;6309358;28;20407;-63
2022/02/18 04:33:10;;;;;;;75.32;41.30;;;;;;;;;;6308333;28;20117;-65
2022/02/18 04:36:11;;;;;;;75.78;41.65;;;;;;;;;;6306190;28;20077;-64
2022/02/18 04:39:14;;;;;;;81.47;42.65;;;;;;;;;;6304003;28;20068;-64
2022/02/18 04:42:16;;;;;;;77.35;42.38;;;;;;;;;;6302455;28;20049;-63
2022/02/18 04:45:18;;;;;;;73.47;41.88;;;;;;;;;;6303517;28;20052;-65
2022/02/18 04:48:19;;;;;;;81.80;43.65;;;;;;;;;;6303190;28;20185;-66
2022/02/18 04:51:21;;;;;;;78.00;44.60;;;;;;;;;;6307821;28;20099;-63
2022/02/18 04:54:24;;;;;;;75.60;42.95;;;;;;;;;;6306966;28;20095;-64
2022/02/18 04:57:25;;;;;;;80.85;43.88;;;;;;;;;;6303429;28;20125;-65
2022/02/18 05:00:27;;;;;;;82.63;43.70;;;;;;;;;;6307305;28;20085;-63
2022/02/18 05:03:28;;;;;;;86.63;44.22;;;;;;;;;;6307342;28;20440;-66
2022/02/18 05:06:30;;;;;;;80.47;43.75;;;;;;;;;;6308732;28;20127;-63
2022/02/18 05:09:33;;;;;;;81.03;44.58;;;;;;;;;;6304633;28;20043;-63
2022/02/18 05:12:35;;;;;;;88.32;45.00;;;;;;;;;;6302374;28;20156;-63
2022/02/18 05:15:37;;;;;;;84.32;43.45;;;;;;;;;;6303695;28;20154;-63
2022/02/18 05:18:38;;;;;;;86.38;44.50;;;;;;;;;;6302541;28;20064;-63
2022/02/18 05:21:40;;;;;;;80.78;45.38;;;;;;;;;;6302764;28;20127;-63
2022/02/18 05:24:43;;;;;;;83.22;44.38;;;;;;;;;;6309418;28;20549;-63
2022/02/18 05:27:47;;;;;;;87.35;45.05;;;;;;;;;;6306336;28;20107;-65
2022/02/18 05:30:48;;;;;;;82.73;43.20;;;;;;;;;;6302886;28;20053;-66
2022/02/18 05:33:50;;;;;;;77.78;43.50;;;;;;;;;;6303016;28;20116;-63
2022/02/18 05:36:51;;;;;;;84.90;45.33;;;;;;;;;;6306313;28;20131;-63
2022/02/18 05:39:54;;;;;;;77.65;43.25;;;;;;;;;;6309146;28;20128;-65
2022/02/18 05:42:56;;;;;;;80.13;43.38;;;;;;;;;;6309596;28;20589;-65
2022/02/18 05:45:58;;;;;;;82.55;43.95;;;;;;;;;;6306885;28;20040;-63
2022/02/18 05:48:59;;;;;;;80.78;43.72;;;;;;;;;;6304805;28;20442;-65
2022/02/18 05:52:01;;;;;;;83.57;45.47;;;;;;;;;;6305627;28;20060;-64
2022/02/18 05:55:05;;;;;;;85.47;45.22;;;;;;;;;;6302349;28;20087;-63
2022/02/18 05:58:06;;;;;;;83.78;43.28;;;;;;;;;;6304824;28;20448;-63
2022/02/18 06:01:08;;;;;;;79.53;42.88;;;;;;;;;;6306651;28;20052;-63
2022/02/18 06:04:10;;;;;;;75.88;41.60;;;;;;;;;;6305660;28;20105;-66
2022/02/18 06:07:11;;;;;;;85.03;44.55;;;;;;;;;;6303935;28;20186;-63
2022/02/18 06:10:14;;;;;;;81.70;44.03;;;;;;;;;;6303023;28;20064;-63
2022/02/18 06:13:16;;;;;;;78.68;43.38;;;;;;;;;;6303623;28;20781;-65
2022/02/18 06:16:17;;;;;;;76.65;43.00;;;;;;;;;;6303252;28;20144;-65
2022/02/18 06:19:19;;;;;;;82.03;45.30;;;;;;;;;;6303968;28;20127;-65
2022/02/18 06:22:20;;;;;;;83.97;42.78;;;;;;;;;;6303310;28;20097;-65
2022/02/18 06:25:23;;;;;;;82.03;44.45;;;;;;;;;;6308816;28;20184;-65
2022/02/18 06:28:25;;;;;;;88.85;43.97;;;;;;;;;;6305810;28;20097;-65
2022/02/18 06:31:27;;;;;;;85.53;44.60;;;;;;;;;;6311354;28;20048;-65
2022/02/18 06:34:28;;;;;;;83.40;43.33;;;;;;;;;;6311199;28;20044;-64
2022/02/18 06:37:30;;;;;;;83.82;44.08;;;;;;;;;;6310771;28;20129;-64
2022/02/18 06:40:33;;;;;;;84.85;43.75;;;;;;;;;;6309590;28;20050;-64
2022/02/18 06:43:34;;;;;;;81.22;42.55;;;;;;;;;;6303043;28;20131;-63
2022/02/18 06:46:36;;;;;;;84.85;44.10;;;;;;;;;;6304587;28;20133;-66
2022/02/18 06:49:38;;;;;;;86.35;45.05;;;;;;;;;;6302110;28;20129;-65
2022/02/18 06:52:39;;;;;;;84.63;44.03;;;;;;;;;;6301163;28;20056;-66
2022/02/18 06:55:42;;;;;;;83.90;44.55;;;;;;;;;;6302378;28;20514;-64
2022/02/18 06:58:44;;;;;;;87.72;43.17;;;;;;;;;;6299538;28;20044;-64
2022/02/18 07:01:47;;;;;;;86.50;44.80;;;;;;;;;;6299489;28;20099;-64
2022/02/18 07:04:48;;;;;;;89.00;44.47;;;;;;;;;;6305177;28;20492;-64
2022/02/18 07:07:50;;;;;;;83.18;42.88;;;;;;;;;;6308652;28;20051;-64
2022/02/18 07:10:53;;;;;;;86.75;44.67;;;;;;;;;;6313701;28;20130;-64
2022/02/18 07:13:54;;;;;;;86.50;46.90;;;;;;;;;;6308847;28;20652;-65
2022/02/18 07:16:56;;;;;;;95.85;46.88;;;;;;;;;;6308655;28;20130;-64
2022/02/18 07:19:58;;;;;;;93.97;46.17;;;;;;;;;;6303985;28;20033;-64
2022/02/18 07:22:59;;;;;;;85.20;43.95;;;;;;;;;;6304880;28;20090;-64
2022/02/18 07:26:02;;;;;;;91.43;46.17;;;;;;;;;;6303555;28;20090;-64
2022/02/18 07:29:04;;;;;;;84.03;44.13;;;;;;;;;;6297805;28;20086;-69
2022/02/18 07:32:06;;;;;;;90.85;46.22;;;;;;;;;;6299214;28;20080;-64
2022/02/18 07:35:08;;;;;;;95.15;46.50;;;;;;;;;;6302956;28;20131;-64
2022/02/18 07:38:11;;;;;;;93.28;45.90;;;;;;;;;;6308571;28;20381;-64
2022/02/18 07:41:14;;;;;;;90.82;45.08;;;;;;;;;;6306363;28;20053;-64
2022/02/18 07:44:16;;;;;;;91.25;44.63;;;;;;;;;;6315152;28;20051;-64
2022/02/18 07:47:17;;;;;;;86.25;43.85;;;;;;;;;;6314861;28;20151;-64
2022/02/18 07:50:20;;;;;;;93.20;43.67;;;;;;;;;;6306545;28;20542;-64
2022/02/18 07:53:21;;;;;;;93.85;45.00;;;;;;;;;;6311224;28;20048;-64
2022/02/18 07:56:24;;;;;;;90.60;46.35;;;;;;;;;;6309810;28;20129;-62
2022/02/18 07:59:26;;;;;;;87.13;45.97;;;;;;;;;;6308865;28;20266;-64
2022/02/18 08:02:27;;;;;;;93.93;46.47;;;;;;;;;;6307803;28;20193;-64
2022/02/18 08:05:29;;;;;;;94.38;45.22;;;;;;;;;;6305750;28;20460;-64
2022/02/18 08:08:32;;;;;;;85.75;45.05;;;;;;;;;;6304369;28;20179;-63
2022/02/18 08:11:36;;;;;;;83.80;43.78;;;;;;;;;;6306518;28;20131;-63
2022/02/18 08:14:38;;;;;;;85.60;43.60;;;;;;;;;;6302745;28;20067;-63
2022/02/18 08:17:39;;;;;;;87.88;43.92;;;;;;;;;;6309458;28;20127;-63
2022/02/18 08:20:41;;;;;;;95.07;46.17;;;;;;;;;;6313489;28;20045;-64
2022/02/18 08:23:43;;;;;;;89.95;43.85;;;;;;;;;;6316806;28;20151;-63
2022/02/18 08:26:46;;;;;;;88.70;43.78;;;;;;;;;;6313385;28;20052;-63
2022/02/18 08:29:47;;;;;;;89.63;43.78;;;;;;;;;;6311830;28;20160;-63
2022/02/18 08:32:49;;;;;;;87.32;44.17;;;;;;;;;;6310076;28;20584;-63
2022/02/18 08:35:50;;;;;;;79.25;41.05;;;;;;;;;;6312224;28;20040;-63
2022/02/18 08:38:52;;;;;;;80.30;42.50;;;;;;;;;;6309751;28;20128;-63
2022/02/18 08:41:55;;;;;;;87.88;43.53;;;;;;;;;;6306982;28;20080;-62
2022/02/18 08:44:57;;;;;;;82.50;42.60;;;;;;;;;;6306251;28;20614;-67
2022/02/18 08:47:59;;;;;;;95.60;45.70;;;;;;;;;;6310423;28;20136;-63
2022/02/18 08:51:01;;;;;;;85.80;44.50;;;;;;;;;;6307883;28;20056;-63
2022/02/18 08:54:03;;;;;;;90.30;44.15;;;;;;;;;;6314321;28;20079;-64
2022/02/18 08:57:06;;;;;;;87.85;44.70;;;;;;;;;;6311821;28;20068;-62
2022/02/18 09:00:09;;;;;;;84.05;44.03;;;;;;;;;;6307108;28;20071;-63
2022/02/18 09:03:11;;;;;;;81.25;41.92;;;;;;;;;;6307065;28;20109;-65
2022/02/18 09:06:12;;;;;;;88.03;43.88;;;;;;;;;;6309937;28;20530;-62
2022/02/18 09:09:14;;;;;;;88.80;43.13;;;;;;;;;;6306798;28;20700;-62
2022/02/18 09:12:18;;;;;;;78.18;41.03;;;;;;;;;;6304079;28;20492;-63
2022/02/18 09:15:20;;;;;;;84.13;42.85;;;;;;;;;;6308007;28;20175;-62
2022/02/18 09:18:22;;;;;;;84.93;44.03;;;;;;;;;;6304850;28;20127;-63
2022/02/18 09:21:23;;;;;;;75.00;41.38;;;;;;;;;;6305921;28;20048;-64
2022/02/18 09:24:25;;;;;;;79.65;42.30;;;;;;;;;;6305632;28;20123;-63
2022/02/18 09:27:28;;;;;;;81.30;42.83;;;;;;;;;;6304892;28;20052;-64
2022/02/18 09:30:31;;;;;;;80.10;42.38;;;;;;;;;;6308057;28;20094;-63
2022/02/18 09:33:33;;;;;;;74.47;42.47;;;;;;;;;;6305372;28;20112;-63
2022/02/18 09:36:34;;;;;;;73.47;41.65;;;;;;;;;;6310581;28;20051;-63
2022/02/18 09:39:36;;;;;;;77.30;42.15;;;;;;;;;;6310327;28;20119;-63
2022/02/18 09:42:41;;;;;;;74.55;43.13;;;;;;;;;;6312236;28;20456;-65
2022/02/18 09:45:44;;;;;;;74.65;42.90;;;;;;;;;;6310359;28;20098;-65
2022/02/18 09:48:46;;;;;;;70.20;41.03;;;;;;;;;;6315370;28;20498;-65
2022/02/18 09:51:48;;;;;;;69.45;40.30;;;;;;;;;;6312316;28;20076;-64
2022/02/18 09:54:49;;;;;;;68.72;41.08;;;;;;;;;;6312914;28;20048;-62
2022/02/18 09:57:54;;;;;;;69.47;40.55;;;;;;;;;;6312292;28;20040;-65
2022/02/18 10:00:56;;;;;;;68.07;40.65;;;;;;;;;;6308454;28;20052;-65
2022/02/18 10:03:59;;;;;;;71.55;40.65;;;;;;;;;;6314910;28;20051;-64
2022/02/18 10:07:02;;;;;;;70.80;40.15;;;;;;;;;;6313195;28;20047;-65
2022/02/18 10:10:15;;;;;;;66.82;39.33;;;;;;;;;;6312411;28;20052;-64
2022/02/18 10:13:35;;;;;;;69.03;39.13;;;;;;;;;;6311102;28;20782;-64
2022/02/18 10:16:37;;;;;;;68.10;39.42;;;;;;;;;;6304793;28;20491;-64
2022/02/18 10:19:49;;;;;;;65.22;38.83;;;;;;;;;;6302585;28;20128;-64
2022/02/18 10:22:56;;;;;;;61.85;37.90;;;;;;;;;;6303308;28;20093;-64
2022/02/18 10:25:57;;;;;;;60.15;37.67;;;;;;;;;;6303509;28;20056;-62
2022/02/18 10:29:00;;;;;;;67.18;36.22;;;;;;;;;;6303167;28;20095;-65
2022/02/18 10:32:10;;;;;;;60.72;36.28;;;;;;;;;;6303711;28;20186;-65
2022/02/18 10:35:11;;;;;;;57.28;35.63;;;;;;;;;;6311292;28;20045;-64
2022/02/18 10:38:13;;;;;;;61.40;38.25;;;;;;;;;;6306565;28;20491;-65
2022/02/18 10:41:23;;;;;;;65.22;40.08;;;;;;;;;;6303722;28;20044;-63
2022/02/18 10:44:27;;;;;;;98.97;60.92;;;;;;;;;;6302933;28;20053;-66
2022/02/18 10:47:29;;;;;;;;;;;;;;;;;;6304395;28;20048;-61
2022/02/18 10:50:30;;;;;;;90.93;53.35;;;;;;;;;;6302235;28;19967;-62
2022/02/18 10:53:36;;;;;;;105.63;65.20;;;;;;;;;;6301460;28;20440;-64
2022/02/18 10:56:38;;;;;;;55.33;37.30;;;;;;;;;;6302456;28;20540;-61
2022/02/18 10:59:41;;;;;;;73.47;48.72;;;;;;;;;;6300003;28;20056;-64
2022/02/18 11:02:46;;;;;;;58.78;40.55;;;;;;;;;;6298579;28;20072;-64
2022/02/18 11:05:48;;;;;;;57.38;36.08;;;;;;;;;;6303394;28;20063;-65
2022/02/18 11:09:00;;;;;;;94.95;67.88;;;;;;;;;;6302587;28;20064;-65
2022/02/18 11:12:07;;;;;;;67.97;42.95;;;;;;;;;;6304608;28;20138;-65
2022/02/18 11:15:10;;;;;;;64.95;44.15;;;;;;;;;;6308123;28;20048;-65
2022/02/18 11:18:12;;;;;;;60.70;42.60;;;;;;;;;;6309942;28;20404;-66
2022/02/18 11:21:16;;;;;;;50.33;33.42;;;;;;;;;;6307734;28;20182;-64
2022/02/18 11:24:20;;;;;;;48.33;32.38;;;;;;;;;;6305558;28;20416;-65
2022/02/18 11:27:22;;;;;;;49.05;33.45;;;;;;;;;;6303520;28;20050;-66
2022/02/18 11:30:25;;;;;;;48.97;31.75;;;;;;;;;;6302336;28;20094;-65
2022/02/18 11:33:46;;;;;;;49.50;32.10;;;;;;;;;;6306808;28;20044;-65
2022/02/18 11:37:17;;;;;;;81.70;54.80;;;;;;;;;;6306804;28;20505;-65
2022/02/18 11:40:44;;;;;;;73.65;46.58;;;;;;;;;;6305803;28;20093;-65
2022/02/18 11:43:46;;;;;;;144.20;87.13;;;;;;;;;;6308412;28;20062;-65
2022/02/18 11:47:13;;;;;;;136.63;72.88;;;;;;;;;;6316235;28;20130;-65
2022/02/18 11:50:17;;;;;;;58.30;38.45;;;;;;;;;;6317295;28;20053;-66
2022/02/18 11:53:33;;;;;;;;;;;;;;;;;;6315846;28;20137;-65
2022/02/18 11:56:39;;;;;;;77.30;50.83;;;;;;;;;;6314641;28;20007;-66
2022/02/18 11:59:57;;;;;;;50.80;33.33;;;;;;;;;;6313766;28;20040;-65
2022/02/18 12:03:10;;;;;;;44.25;31.05;;;;;;;;;;6304579;28;20075;-65
2022/02/18 12:06:13;;;;;;;45.92;31.50;;;;;;;;;;6305989;28;20467;-65
2022/02/18 12:09:14;;;;;;;44.38;32.10;;;;;;;;;;6307343;28;20154;-65
2022/02/18 12:12:21;;;;;;;50.00;32.45;;;;;;;;;;6303181;28;20102;-64
2022/02/18 12:15:27;;;;;;;45.63;30.95;;;;;;;;;;6302126;28;20516;-65
2022/02/18 12:18:30;;;;;;;44.85;30.42;;;;;;;;;;6295478;28;20083;-64
2022/02/18 12:21:32;;;;;;;46.35;30.63;;;;;;;;;;6279522;28;20201;-64
2022/02/18 12:24:42;;;;;;;49.05;31.75;;;;;;;;;;6293036;28;20441;-64
2022/02/18 12:27:43;;;;;;;50.25;32.45;;;;;;;;;;6290804;28;20110;-65
2022/02/18 12:30:56;;;;;;;52.38;31.88;;;;;;;;;;6286339;28;20052;-64
2022/02/18 12:33:59;;;;;;;49.53;32.78;;;;;;;;;;6281102;28;20049;-64
2022/02/18 12:37:00;;;;;;;53.73;33.77;;;;;;;;;;6287800;28;20585;-64
2022/02/18 12:40:04;;;;;;;52.40;33.83;;;;;;;;;;6283229;28;20040;-64
2022/02/18 12:43:08;;;;;;;54.28;34.90;;;;;;;;;;6283811;28;20045;-64
2022/02/18 12:46:12;;;;;;;;;;;;;;;;;;6281640;28;20048;-64
2022/02/18 12:49:15;;;;;;;51.70;33.50;;;;;;;;;;6280869;28;19920;-62
2022/02/18 12:52:17;;;;;;;50.80;32.92;;;;;;;;;;6280714;28;20186;-64
2022/02/18 12:55:22;;;;;;;52.92;34.30;;;;;;;;;;6279898;28;20041;-64
2022/02/18 12:58:24;;;;;;;54.03;32.75;;;;;;;;;;6288643;28;20124;-63
2022/02/18 13:01:26;;;;;;;60.00;35.30;;;;;;;;;;6301924;28;20504;-63
2022/02/18 13:04:29;;;;;;;57.13;34.40;;;;;;;;;;6313863;28;20502;-63
2022/02/18 13:07:34;;;;;;;55.88;33.58;;;;;;;;;;6314332;28;20558;-64
2022/02/18 13:10:37;;;;;;;57.17;33.40;;;;;;;;;;6304835;28;20036;-64
2022/02/18 13:13:38;;;;;;;53.17;33.80;;;;;;;;;;6305811;28;20157;-64
2022/02/18 13:16:40;;;;;;;53.28;33.03;;;;;;;;;;6307392;28;20112;-64
2022/02/18 13:19:44;;;;;;;50.50;32.67;;;;;;;;;;6303511;28;20531;-62
2022/02/18 13:22:46;;;;;;;53.50;34.20;;;;;;;;;;6304690;28;20186;-64
2022/02/18 13:25:50;;;;;;;53.63;33.75;;;;;;;;;;6304528;28;20082;-64
2022/02/18 13:28:51;;;;;;;50.90;32.33;;;;;;;;;;6301508;28;20048;-64
2022/02/18 13:31:53;;;;;;;57.25;32.42;;;;;;;;;;6305406;28;20102;-65
2022/02/18 13:34:56;;;;;;;53.35;33.08;;;;;;;;;;6312500;28;20138;-64
2022/02/18 13:37:58;;;;;;;48.10;30.88;;;;;;;;;;6311210;28;20048;-66
2022/02/18 13:41:08;;;;;;;48.22;30.10;;;;;;;;;;6315036;28;20056;-64
2022/02/18 13:44:13;;;;;;;48.70;29.88;;;;;;;;;;6302701;28;20047;-67
2022/02/18 13:47:14;;;;;;;45.53;28.75;;;;;;;;;;6310363;28;20417;-65
2022/02/18 13:50:18;;;;;;;49.70;29.15;;;;;;;;;;6306747;28;20044;-65
2022/02/18 13:53:20;;;;;;;44.53;28.40;;;;;;;;;;6305123;28;20190;-66
2022/02/18 13:56:27;;;;;;;49.92;31.15;;;;;;;;;;6303433;28;20625;-62
2022/02/18 13:59:29;;;;;;;52.72;32.75;;;;;;;;;;6307260;28;20059;-64
2022/02/18 14:02:31;;;;;;;49.33;31.08;;;;;;;;;;6304073;28;20090;-63
2022/02/18 14:05:35;;;;;;;50.20;31.92;;;;;;;;;;6299002;28;20068;-64
2022/02/18 14:08:37;;;;;;;51.35;31.77;;;;;;;;;;6310387;28;20476;-64
2022/02/18 14:11:47;;;;;;;46.83;30.60;;;;;;;;;;6306633;28;20060;-64
2022/02/18 14:14:58;;;;;;;47.95;31.77;;;;;;;;;;6299746;28;20409;-65
2022/02/18 14:18:06;;;;;;;49.95;32.65;;;;;;;;;;6305814;28;20066;-65
2022/02/18 14:21:09;;;;;;;55.78;34.15;;;;;;;;;;6304659;28;20079;-65
2022/02/18 14:24:10;;;;;;;49.30;31.77;;;;;;;;;;6303094;28;20576;-64
2022/02/18 14:27:14;;;;;;;52.53;33.33;;;;;;;;;;6307828;28;20800;-64
2022/02/18 14:30:15;;;;;;;53.65;32.75;;;;;;;;;;6306481;28;20049;-64
2022/02/18 14:33:20;;;;;;;54.47;32.78;;;;;;;;;;6306479;28;20591;-65
2022/02/18 14:36:32;;;;;;;51.97;31.30;;;;;;;;;;6301051;28;20083;-64
2022/02/18 14:39:42;;;;;;;55.60;33.50;;;;;;;;;;6302354;28;20161;-64
2022/02/18 14:42:45;;;;;;;50.83;32.55;;;;;;;;;;6305670;28;20436;-64
2022/02/18 14:45:46;;;;;;;50.10;30.90;;;;;;;;;;6305315;28;20056;-64
2022/02/18 14:48:48;;;;;;;52.17;32.90;;;;;;;;;;6305781;28;20076;-64
2022/02/18 14:51:51;;;;;;;52.50;31.98;;;;;;;;;;6304623;28;20128;-64
2022/02/18 14:54:53;;;;;;;54.83;33.10;;;;;;;;;;6305657;28;20178;-65
2022/02/18 14:57:55;;;;;;;52.00;30.83;;;;;;;;;;6308524;28;20054;-64
2022/02/18 15:00:57;;;;;;;45.75;30.35;;;;;;;;;;6303715;28;20772;-65
2022/02/18 15:03:58;;;;;;;48.85;29.65;;;;;;;;;;6299864;28;20115;-65
2022/02/18 15:07:01;;;;;;;50.65;31.30;;;;;;;;;;6311470;28;20462;-64
2022/02/18 15:10:04;;;;;;;44.97;29.30;;;;;;;;;;6306255;28;20242;-65
2022/02/18 15:13:06;;;;;;;45.30;28.73;;;;;;;;;;6308313;28;20553;-64
2022/02/18 15:16:08;;;;;;;47.65;29.50;;;;;;;;;;6309315;28;20059;-66
2022/02/18 15:19:09;;;;;;;46.80;29.02;;;;;;;;;;6306633;28;20048;-65
2022/02/18 15:22:13;;;;;;;49.22;29.38;;;;;;;;;;6310740;28;20121;-63
2022/02/18 15:25:14;;;;;;;46.67;29.00;;;;;;;;;;6308248;28;20051;-64
2022/02/18 15:28:16;;;;;;;44.17;28.35;;;;;;;;;;6306917;28;20194;-65
2022/02/18 15:34:37;;;;;;;44.40;29.98;;;;;;;;;;6306786;28;20052;-65
2022/02/18 15:37:40;;;;;;;47.85;29.02;;;;;;;;;;6305792;28;20081;-65
2022/02/18 15:44:00;;;;;;;49.92;29.23;;;;;;;;;;6306941;28;20052;-65
2022/02/18 15:47:02;;;;;;;47.22;29.88;;;;;;;;;;6307291;28;20091;-64
2022/02/18 15:50:05;;;;;;;46.20;30.13;;;;;;;;;;6308686;28;20143;-65
2022/02/18 15:53:08;;;;;;;47.20;29.15;;;;;;;;;;6309428;28;20514;-65
2022/02/18 15:56:09;;;;;;;46.72;28.85;;;;;;;;;;6311404;28;20044;-65
2022/02/18 15:59:11;;;;;;;49.42;30.55;;;;;;;;;;6310314;28;20353;-65
2022/02/18 16:02:12;;;;;;;45.75;30.10;;;;;;;;;;6305756;28;20067;-64
2022/02/18 16:05:14;;;;;;;45.22;28.73;;;;;;;;;;6307571;28;20769;-64
2022/02/18 16:08:17;;;;;;;50.13;29.65;;;;;;;;;;6305263;28;20086;-65
2022/02/18 16:11:18;;;;;;;46.00;29.70;;;;;;;;;;6305946;28;20499;-65
2022/02/18 16:14:21;;;;;;;46.95;30.50;;;;;;;;;;6302519;28;20128;-65
2022/02/18 16:17:23;;;;;;;48.30;29.80;;;;;;;;;;6305981;28;20420;-65
2022/02/18 16:20:25;;;;;;;47.60;30.83;;;;;;;;;;6302567;28;20468;-64
2022/02/18 16:23:28;;;;;;;49.75;30.95;;;;;;;;;;6310961;28;20369;-65
2022/02/18 16:26:29;;;;;;;49.88;30.27;;;;;;;;;;6309330;28;20433;-65
2022/02/18 16:29:31;;;;;;;47.38;29.80;;;;;;;;;;6316329;28;20090;-66
2022/02/18 16:32:33;;;;;;;50.00;31.23;;;;;;;;;;6314449;28;20047;-66
2022/02/18 16:35:35;;;;;;;47.53;30.15;;;;;;;;;;6309156;28;20109;-66
2022/02/18 16:38:38;;;;;;;51.67;30.50;;;;;;;;;;6311981;28;20169;-66
2022/02/18 16:41:39;;;;;;;50.92;30.67;;;;;;;;;;6306974;28;20128;-65
2022/02/18 16:44:41;;;;;;;50.15;30.90;;;;;;;;;;6307259;28;20114;-65
2022/02/18 16:47:44;;;;;;;48.88;29.70;;;;;;;;;;6308173;28;20181;-65
2022/02/18 16:50:45;;;;;;;49.70;30.15;;;;;;;;;;6310305;28;20409;-65
2022/02/18 16:53:48;;;;;;;49.20;32.42;;;;;;;;;;6310100;28;20052;-65
2022/02/18 16:56:50;;;;;;;47.95;30.45;;;;;;;;;;6305752;28;20127;-65
2022/02/18 16:59:51;;;;;;;47.85;30.95;;;;;;;;;;6305187;28;20162;-66
2022/02/18 17:02:55;;;;;;;49.05;31.38;;;;;;;;;;6310956;28;20184;-65
2022/02/18 17:05:57;;;;;;;48.67;30.73;;;;;;;;;;6315689;28;20047;-66
2022/02/18 17:09:00;;;;;;;49.70;32.53;;;;;;;;;;6316247;28;20052;-65
2022/02/18 17:12:05;;;;;;;49.10;31.42;;;;;;;;;;6312164;28;20055;-65
2022/02/18 17:15:07;;;;;;;48.25;31.10;;;;;;;;;;6309611;28;20093;-64
2022/02/18 17:18:09;;;;;;;51.83;32.55;;;;;;;;;;6309355;28;20069;-64
2022/02/18 17:21:10;;;;;;;50.10;31.00;;;;;;;;;;6307872;28;20130;-64
2022/02/18 17:24:13;;;;;;;54.50;33.50;;;;;;;;;;6306716;28;20064;-65
2022/02/18 17:27:15;;;;;;;54.42;32.28;;;;;;;;;;6304487;28;20151;-66
2022/02/18 17:30:16;;;;;;;49.47;31.17;;;;;;;;;;6299881;28;20080;-65
2022/02/18 17:33:18;;;;;;;55.67;33.75;;;;;;;;;;6302550;28;20182;-65
2022/02/18 17:36:21;;;;;;;56.50;33.75;;;;;;;;;;6308527;28;20139;-65
2022/02/18 17:39:24;;;;;;;57.63;32.65;;;;;;;;;;6311132;28;20384;-65
2022/02/18 17:42:26;;;;;;;54.38;32.65;;;;;;;;;;6309904;28;20073;-64
2022/02/18 17:45:27;;;;;;;57.17;33.78;;;;;;;;;;6307711;28;20070;-66
2022/02/18 17:48:29;;;;;;;56.25;34.30;;;;;;;;;;6312531;28;20146;-65
2022/02/18 17:51:31;;;;;;;58.50;34.67;;;;;;;;;;6310443;28;20051;-65
2022/02/18 17:54:34;;;;;;;55.75;33.85;;;;;;;;;;6309644;28;20181;-65